AirNav   Air Wisconsin Up To $57,000 Bonus
 
 1456 users online  

50PN Delmont Personal Use Heliport
Delmont, Pennsylvania, USA

GOING TO DELMONT?


FAA INFORMATION EFFECTIVE 07 NOVEMBER 2019

Location

FAA Identifier: 50PN
Lat/Long: 40-23-28.2440N 079-34-16.1510W
40-23.470733N 079-34.269183W
40.3911789,-79.5711531
(estimated)
Elevation: 1210 ft. / 369 m (estimated)
Variation: 08W (1985)
From city: 2 miles N of DELMONT, PA
Time zone: UTC -5 (UTC -4 during Daylight Saving Time)
Zip code: 15601

Heliport Operations

Heliport use: Private use. Permission required prior to landing
Activation date: 08/1980
Control tower: no
ARTCC: CLEVELAND CENTER
FSS: ALTOONA FLIGHT SERVICE STATION
Attendance: MON-SAT 0800-1700
Wind indicator: yes
Segmented circle: no

Heliport Communications

WX AWOS-3 at LBE (10 nm SE): 118.375 (724-539-0671)
WX AWOS-3 at FWQ (16 nm SW): 118.475 (724-379-5815)
WX ASOS at AGC (17 nm W): PHONE 412-466-8968

Nearby radio navigation aids

VOR radial/distance  VOR name  Freq  Var
AGCr082/22.5ALLEGHENY VOR/DME110.0009W
IHDr345/26.9INDIAN HEAD VORTAC108.2006W
JSTr284/34.0JOHNSTOWN VOR/DME113.0006W
RECr265/38.8REVLOC VOR/DME110.6009W
EWCr140/39.1ELLWOOD CITY VOR/DME115.8008W

 
NDB name  Hdg/Dist  Freq  Var  ID
STOYSTOWN311/35.120910WSYS ... -.-- ...

Heliport Services

Runway Information

Helipad H1

Dimensions: 60 x 60 ft. / 18 x 18 m
Surface: concrete, in fair condition
CONCRETE LNDG PAD WITHIN A 200' X 200' TURF LNDG/TKOF AREA.
Latitude: 40-23.470733N
Longitude: 079-34.269183W
Elevation: 1210.0 ft.
Traffic pattern: leftleft
Markings: none, in fair condition

Heliport Ownership and Management from official FAA records

Ownership: Privately-owned
Owner: BECKWITH MACHINERY CO
PO BOX 8718
PITTSBURGH, PA 15221
Phone 412-468-5000
Manager: JOHN H. SLIKE, V.P.
PO BOX 8718
PITTSBURGH, PA 15221
Phone 412-351-4010
BECKWITH MACHINERY CO.

Additional Remarks

FOR CD CTC JOHNSTOWN APCH AT 814-532-5960, WHEN APCH CLSD CTC CLEVELAND ARTCC AT 440-774-0234.

Instrument Procedures

There are no published instrument procedures at 50PN.

Some nearby airports with instrument procedures:

KLBE - Arnold Palmer Regional Airport (10 nm SE)
KFWQ - Rostraver Airport (16 nm SW)
KAGC - Allegheny County Airport (17 nm W)
6P7 - McVille Airport (21 nm N)
G05 - Finleyville Airpark (22 nm SW)
 
Loc | Ops | Rwys | IFR | FBO | Links
Com | Nav | Svcs | Stats | Notes
Area around 50PN (Delmont Personal Use Heliport)
 
Road maps at: MapQuest Bing Google
 
Aerial photo
No photo
 
Sectional chart

 
Airport distance calculator
Flying to Delmont Personal Use Heliport? Find the distance to fly.

From to 50PN

Sunrise and sunset
Times for 12-Nov-2019
 Local
(UTC-5)
 Zulu
(UTC)
Morning civil twilight06:3311:33
Sunrise07:0212:02
Sunset17:0322:03
Evening civil twilight17:3222:32

Current date and time
Zulu (UTC)  12-Nov-2019 16:47:02
Local (UTC-5)  12-Nov-2019 11:47:02
 
METAR
KLBE 
11nm SE 
121625Z 28014KT 2SM -SN BKN016 OVC070 M01/M03 A3008
KAGC 
16nm W 
121629Z VRB06G17KT 1/4SM R28/2800V4500FT SN FZFG FEW007 OVC012 M02/M04 A3009 RMK AO2 PK WND 30026/1609 P0001 T10221039
KP53 
16nm SW 
121556Z AUTO 26006KT M10/M12 A3031 RMK AO1 SLP276 P0006 T11001122
TAF
KLBE 
11nm SE 
121127Z 1212/1312 31010G18KT 6SM -SN OVC015 TEMPO 1215/1218 2SM -SN BKN010 FM121800 31012G20KT 3SM -SN OVC015 FM130200 34012G20KT P6SM BKN025
KAGC 
16nm W 
121342Z 1214/1312 31010G18KT 1 1/2SM -SN BR BKN015 FM121800 34012G20KT 3SM -SN BKN015 FM130100 33008KT P6SM BKN035
NOTAMs
Click for the latest NOTAMs
NOTAMs are issued by the DoD/FAA and will open in a separate window not controlled by AirNav.

 

 
 

Would you like to see your business listed on this page?

 If your business provides an interesting product or service to pilots, flight crews, aircraft, or users of the Delmont Personal Use Heliport, you should consider listing it here.  To start the listing process, click on the button below
 
Add a business
 

Other Pages about Delmont Personal Use Heliport

Update a link
 
Copyright © AirNav, LLC. All rights reserved. Privacy Policy  Contact